Time;durP1;ratioP1;P1;durP2;ratioP2;P2;SDS_P1;SDS_P2;PMS_P1;PMS_P2;Temp;Humidity;BMP_temperature;BMP_pressure;BME280_temperature;BME280_humidity;BME280_pressure;Samples;Min_cycle;Max_cycle;Signal;HPM_P1;HPM_P2
2022/10/12 00:02:34;;;;;;;6.00;1.83;;;;;;;5.41;100.00;99293.59;15297080;19;20496;-78
2022/10/12 00:07:59;;;;;;;6.30;2.38;;;;;;;5.33;100.00;99286.13;15293900;19;20014;-78
2022/10/12 00:13:23;;;;;;;5.22;2.10;;;;;;;5.23;100.00;99283.22;15285313;19;20015;-77
2022/10/12 00:18:54;;;;;;;10.00;2.78;;;;;;;5.17;100.00;99282.81;15287112;19;20013;-78
2022/10/12 00:24:19;;;;;;;8.13;2.60;;;;;;;5.12;100.00;99291.13;15295298;19;20022;-78
2022/10/12 00:29:44;;;;;;;7.72;2.40;;;;;;;5.05;100.00;99281.81;15288656;19;20011;-77
2022/10/12 00:35:12;;;;;;;8.63;2.97;;;;;;;5.04;100.00;99290.78;15296904;19;20015;-76
2022/10/12 00:40:38;;;;;;;5.45;2.33;;;;;;;5.02;100.00;99292.72;15290992;19;20003;-77
2022/10/12 00:46:04;;;;;;;7.20;2.20;;;;;;;4.91;100.00;99294.28;15336856;19;20017;-77
2022/10/12 00:51:31;;;;;;;7.53;2.30;;;;;;;4.82;100.00;99297.59;15319449;19;20014;-78
2022/10/12 00:56:59;;;;;;;5.82;2.60;;;;;;;4.71;100.00;99292.97;15306199;19;20014;-78
2022/10/12 01:02:26;;;;;;;10.90;3.03;;;;;;;4.48;100.00;99289.16;15301169;19;20409;-77
2022/10/12 01:07:54;;;;;;;7.47;2.88;;;;;;;4.47;100.00;99288.28;15297250;19;20018;-78
2022/10/12 01:13:20;;;;;;;9.57;3.00;;;;;;;4.42;100.00;99285.09;15298548;19;20007;-78
2022/10/12 01:18:52;;;;;;;8.30;2.80;;;;;;;4.41;100.00;99291.38;15294133;19;20018;-78
2022/10/12 01:24:41;;;;;;;7.18;2.80;;;;;;;4.37;100.00;99287.19;15293509;19;20007;-78
2022/10/12 01:30:18;;;;;;;7.97;3.00;;;;;;;4.26;100.00;99282.56;15290100;19;20039;-77
2022/10/12 01:35:55;;;;;;;7.65;2.80;;;;;;;4.25;100.00;99278.19;15295725;19;20074;-79
2022/10/12 01:41:25;;;;;;;11.07;2.88;;;;;;;4.23;100.00;99274.75;15285624;19;20111;-78
2022/10/12 01:46:54;;;;;;;10.02;2.90;;;;;;;4.21;100.00;99275.81;15283227;19;20019;-77
2022/10/12 01:52:35;;;;;;;10.90;3.17;;;;;;;4.15;100.00;99277.06;15269157;19;20014;-77
2022/10/12 01:58:23;;;;;;;9.70;3.00;;;;;;;4.13;100.00;99268.31;15287562;19;20018;-78
2022/10/12 02:03:58;;;;;;;6.15;2.90;;;;;;;4.11;100.00;99273.75;15290025;19;20018;-77
2022/10/12 02:09:28;;;;;;;10.23;3.13;;;;;;;4.09;100.00;99280.13;15285413;19;20033;-75
2022/10/12 02:14:55;;;;;;;10.35;3.40;;;;;;;4.06;100.00;99275.00;15288437;19;20043;-76
2022/10/12 02:20:32;;;;;;;6.57;2.65;;;;;;;4.02;100.00;99279.66;15304943;19;20369;-76
2022/10/12 02:25:58;;;;;;;10.55;3.00;;;;;;;3.96;100.00;99280.91;15354754;19;20017;-76
2022/10/12 02:31:34;;;;;;;4.97;2.30;;;;;;;3.96;100.00;99286.25;15302276;19;20270;-76
2022/10/12 02:37:09;;;;;;;7.20;2.38;;;;;;;3.90;100.00;99270.66;15300591;19;20035;-77
2022/10/12 02:42:40;;;;;;;5.72;2.42;;;;;;;3.89;100.00;99279.59;15295957;19;20086;-77
2022/10/12 02:48:29;;;;;;;6.30;2.38;;;;;;;3.88;100.00;99272.56;15299805;19;20018;-76
2022/10/12 02:53:57;;;;;;;6.07;2.90;;;;;;;3.88;100.00;99256.56;15294770;19;20013;-75
2022/10/12 02:59:22;;;;;;;6.90;2.70;;;;;;;3.84;100.00;99261.22;15291399;19;20010;-76
2022/10/12 03:04:47;;;;;;;7.60;2.47;;;;;;;3.82;100.00;99262.28;15301255;19;20020;-78
2022/10/12 03:10:15;;;;;;;6.07;2.33;;;;;;;3.74;100.00;99259.25;15302070;19;20023;-78
2022/10/12 03:15:40;;;;;;;8.05;2.85;;;;;;;3.69;100.00;99251.53;15303390;19;20469;-77
2022/10/12 03:21:04;;;;;;;8.13;2.92;;;;;;;3.66;100.00;99246.41;15296266;19;20025;-79
2022/10/12 03:26:32;;;;;;;6.68;2.70;;;;;;;3.62;100.00;99245.75;15294347;19;20010;-76
2022/10/12 03:31:57;;;;;;;7.03;2.50;;;;;;;3.55;100.00;99247.94;15284129;19;20112;-77
2022/10/12 03:37:22;;;;;;;7.43;2.50;;;;;;;3.49;100.00;99247.47;15298091;19;20641;-78
2022/10/12 03:42:49;;;;;;;8.13;2.55;;;;;;;3.44;100.00;99247.75;15296184;19;20502;-77
2022/10/12 03:48:14;;;;;;;7.88;2.65;;;;;;;3.39;100.00;99242.72;15293641;19;20082;-77
2022/10/12 03:53:38;;;;;;;11.35;3.70;;;;;;;3.33;100.00;99253.75;15301192;19;20006;-80
2022/10/12 03:59:07;;;;;;;10.98;3.67;;;;;;;3.32;100.00;99254.69;15305717;19;20073;-78
2022/10/12 04:04:32;;;;;;;14.30;4.90;;;;;;;3.29;100.00;99259.38;15298279;19;20011;-78
2022/10/12 04:10:11;;;;;;;11.77;4.78;;;;;;;3.24;100.00;99257.84;15296705;19;20023;-79
2022/10/12 04:15:39;;;;;;;7.13;3.80;;;;;;;3.21;100.00;99251.84;15298957;19;20029;-78
2022/10/12 04:21:05;;;;;;;10.52;3.50;;;;;;;3.12;100.00;99253.25;15301927;19;20074;-80
2022/10/12 04:26:31;;;;;;;8.52;3.20;;;;;;;3.06;100.00;99248.28;15305212;19;20010;-81
2022/10/12 04:31:58;;;;;;;5.60;3.00;;;;;;;3.01;100.00;99251.22;15297436;19;20037;-80
2022/10/12 04:37:29;;;;;;;6.35;2.90;;;;;;;3.01;100.00;99250.38;15301661;19;20006;-79
2022/10/12 04:42:55;;;;;;;7.50;3.50;;;;;;;3.00;100.00;99254.84;15303368;19;20015;-78
2022/10/12 04:48:22;;;;;;;6.40;3.50;;;;;;;3.00;100.00;99259.31;15312089;19;20039;-80
2022/10/12 04:53:47;;;;;;;8.20;3.53;;;;;;;3.01;100.00;99272.53;15308599;19;20018;-80
2022/10/12 04:59:12;;;;;;;7.55;3.60;;;;;;;2.98;100.00;99262.09;15305532;19;20070;-79
2022/10/12 05:04:39;;;;;;;7.07;3.80;;;;;;;2.99;100.00;99269.13;15294216;19;20073;-81
2022/10/12 05:10:04;;;;;;;7.97;3.95;;;;;;;3.00;100.00;99268.16;15288150;19;20018;-79
2022/10/12 05:15:29;;;;;;;8.93;4.00;;;;;;;3.01;100.00;99267.22;15291565;19;20354;-80
2022/10/12 05:20:56;;;;;;;8.55;4.10;;;;;;;3.03;100.00;99262.66;15289920;19;20517;-80
2022/10/12 05:26:21;;;;;;;7.00;3.50;;;;;;;3.04;100.00;99264.38;15294445;19;20018;-79
2022/10/12 05:31:54;;;;;;;6.93;4.18;;;;;;;3.03;100.00;99262.66;15293163;19;20055;-81
2022/10/12 05:37:22;;;;;;;9.07;4.30;;;;;;;3.03;100.00;99264.47;15346521;19;20023;-80
2022/10/12 05:42:47;;;;;;;9.02;3.83;;;;;;;3.01;100.00;99263.69;15275200;19;20010;-78
2022/10/12 05:48:13;;;;;;;7.25;3.53;;;;;;;3.00;100.00;99260.16;15285172;19;20025;-77
2022/10/12 05:53:40;;;;;;;6.60;3.60;;;;;;;3.00;100.00;99264.66;15287434;19;20016;-79
2022/10/12 05:59:05;;;;;;;11.15;4.55;;;;;;;3.03;100.00;99259.97;15290711;19;20365;-77
2022/10/12 06:04:29;;;;;;;7.10;4.10;;;;;;;3.04;100.00;99268.84;15331768;19;20023;-76
2022/10/12 06:09:57;;;;;;;10.18;4.63;;;;;;;3.08;100.00;99273.88;15297218;19;20018;-77
2022/10/12 06:15:21;;;;;;;11.27;5.10;;;;;;;3.13;100.00;99276.28;15279885;19;20518;-77
2022/10/12 06:20:50;;;;;;;10.95;5.28;;;;;;;3.19;100.00;99283.03;15279415;19;20477;-77
2022/10/12 06:26:44;;;;;;;7.07;3.85;;;;;;;3.17;100.00;99284.94;15286078;19;20026;-77
2022/10/12 06:32:09;;;;;;;8.77;3.65;;;;;;;3.16;100.00;99269.91;15288210;19;20047;-78
2022/10/12 06:37:33;;;;;;;6.88;3.38;;;;;;;3.20;100.00;99266.94;15286415;19;20015;-78
2022/10/12 06:43:10;;;;;;;6.20;3.35;;;;;;;3.24;100.00;99283.59;15274856;19;20724;-78
2022/10/12 06:48:34;;;;;;;7.18;3.53;;;;;;;3.30;100.00;99285.03;15281383;19;20450;-77
2022/10/12 06:53:59;;;;;;;5.93;3.20;;;;;;;3.37;100.00;99295.22;15277396;19;20014;-78
2022/10/12 06:59:26;;;;;;;7.72;3.17;;;;;;;3.42;100.00;99286.94;15288799;19;20030;-78
2022/10/12 07:04:52;;;;;;;3.60;2.83;;;;;;;3.49;100.00;99296.28;15303705;19;20622;-80
2022/10/12 07:10:17;;;;;;;8.45;3.13;;;;;;;3.58;100.00;99301.97;15303962;19;20014;-82
2022/10/12 07:15:50;;;;;;;8.32;3.17;;;;;;;3.73;100.00;99292.16;15298835;19;20601;-81
2022/10/12 07:21:14;;;;;;;4.35;3.10;;;;;;;3.85;100.00;99294.06;15299392;19;20015;-82
2022/10/12 07:26:39;;;;;;;9.43;3.50;;;;;;;4.00;100.00;99306.44;15309113;19;20019;-81
2022/10/12 07:32:06;;;;;;;6.32;3.40;;;;;;;4.10;100.00;99311.16;15303242;19;20007;-82
2022/10/12 07:37:31;;;;;;;9.55;2.90;;;;;;;4.21;100.00;99303.34;15305601;19;20089;-81
2022/10/12 07:42:55;;;;;;;8.43;3.25;;;;;;;4.30;100.00;99300.06;15302046;19;20022;-81
2022/10/12 07:48:36;;;;;;;7.20;2.80;;;;;;;4.45;100.00;99303.56;15299609;19;20036;-82
2022/10/12 07:54:08;;;;;;;6.15;2.92;;;;;;;4.58;100.00;99300.94;15301922;19;20077;-83
2022/10/12 07:59:38;;;;;;;19.17;3.43;;;;;;;4.77;100.00;99295.25;15304622;19;20081;-81
2022/10/12 08:05:05;;;;;;;5.30;2.42;;;;;;;4.97;100.00;99289.50;15304599;19;20035;-82
2022/10/12 08:10:30;;;;;;;6.90;2.60;;;;;;;5.12;100.00;99285.78;15308143;19;20046;-83
2022/10/12 08:15:56;;;;;;;8.32;2.63;;;;;;;5.40;100.00;99287.44;15312083;19;20082;-80
2022/10/12 08:21:24;;;;;;;7.47;2.55;;;;;;;5.66;100.00;99279.38;15304397;19;20016;-80
2022/10/12 08:26:49;;;;;;;5.45;2.50;;;;;;;5.93;100.00;99280.19;15322370;19;20363;-82
2022/10/12 08:32:24;;;;;;;8.77;2.80;;;;;;;6.19;100.00;99280.13;15315221;19;20032;-81
2022/10/12 08:37:51;;;;;;;8.13;2.60;;;;;;;6.36;100.00;99269.06;15342892;19;20018;-83
2022/10/12 08:43:33;;;;;;;18.90;5.45;;;;;;;6.54;100.00;99268.66;15305911;19;20017;-80
2022/10/12 08:49:00;;;;;;;;;;;;;;;6.85;100.00;99255.63;15314987;19;20772;-81
2022/10/12 08:54:30;;;;;;;5.60;2.53;;;;;;;7.12;100.00;99239.25;15285925;19;20156;-82
2022/10/12 08:59:55;;;;;;;5.88;2.40;;;;;;;7.39;100.00;99238.09;15297419;19;20018;-79
2022/10/12 09:05:26;;;;;;;5.22;2.60;;;;;;;7.61;100.00;99231.84;15296518;19;20030;-83
2022/10/12 09:11:01;;;;;;;6.20;3.38;;;;;;;7.97;100.00;99232.56;15294766;19;20031;-81
2022/10/12 09:16:30;;;;;;;9.68;3.05;;;;;;;8.16;100.00;99214.97;15305984;19;20780;-81
2022/10/12 09:21:55;;;;;;;7.60;2.45;;;;;;;8.39;100.00;99214.91;15288079;19;20022;-82
2022/10/12 09:27:24;;;;;;;7.30;2.70;;;;;;;8.68;100.00;99225.03;15296327;19;21969;-81
2022/10/12 09:33:13;;;;;;;6.60;2.60;;;;;;;9.03;100.00;99221.19;15295904;19;20015;-80
2022/10/12 09:38:39;;;;;;;5.38;2.80;;;;;;;9.39;100.00;99219.00;15297005;19;20006;-80
2022/10/12 09:44:08;;;;;;;4.15;2.38;;;;;;;9.61;100.00;99209.03;15294482;19;20016;-81
2022/10/12 09:49:49;;;;;;;9.35;2.65;;;;;;;9.91;100.00;99207.28;15293757;19;20018;-81
2022/10/12 09:55:25;;;;;;;6.80;2.20;;;;;;;10.25;100.00;99196.16;15285174;19;20077;-82
2022/10/12 10:00:52;;;;;;;5.57;2.10;;;;;;;10.57;100.00;99181.59;15286886;19;20020;-81
2022/10/12 10:06:25;;;;;;;6.82;2.17;;;;;;;10.76;100.00;99178.88;15290940;19;20027;-80
2022/10/12 10:11:50;;;;;;;4.43;1.80;;;;;;;10.92;100.00;99169.34;15282613;19;20010;-80
2022/10/12 10:17:25;;;;;;;6.78;2.35;;;;;;;11.12;100.00;99159.38;15282833;19;20007;-81
2022/10/12 10:22:56;;;;;;;6.22;2.10;;;;;;;11.35;100.00;99167.09;15288991;19;20003;-81
2022/10/12 10:28:25;;;;;;;4.70;2.10;;;;;;;11.66;100.00;99162.28;15287460;19;20006;-80
2022/10/12 10:33:52;;;;;;;6.25;2.10;;;;;;;11.91;100.00;99165.25;15288361;19;20078;-81
2022/10/12 10:39:24;;;;;;;7.68;2.10;;;;;;;12.12;100.00;99166.88;15328762;19;20007;-79
2022/10/12 10:44:58;;;;;;;5.78;1.90;;;;;;;12.36;100.00;99157.31;15330604;19;20027;-80
2022/10/12 10:50:31;;;;;;;6.47;1.92;;;;;;;12.52;100.00;99157.47;15299945;19;20015;-81
2022/10/12 10:55:59;;;;;;;6.90;1.60;;;;;;;12.81;100.00;99148.22;15293831;19;20018;-81
2022/10/12 11:01:33;;;;;;;8.57;1.90;;;;;;;13.02;100.00;99152.41;15291348;19;20382;-81
2022/10/12 11:07:05;;;;;;;4.55;1.42;;;;;;;13.23;100.00;99141.22;15304483;19;20019;-81
2022/10/12 11:12:35;;;;;;;4.72;1.70;;;;;;;13.46;100.00;99137.97;15305973;19;20018;-80
2022/10/12 11:18:05;;;;;;;4.45;1.60;;;;;;;13.67;100.00;99134.84;15306098;19;20010;-79
2022/10/12 11:23:40;;;;;;;7.60;1.90;;;;;;;13.93;100.00;99123.06;15304541;19;20493;-81
2022/10/12 11:29:07;;;;;;;8.20;1.50;;;;;;;14.10;100.00;99119.38;15302741;19;20116;-81
2022/10/12 11:34:51;;;;;;;6.30;1.83;;;;;;;14.33;100.00;99116.00;15296496;19;20029;-82
2022/10/12 11:40:28;;;;;;;5.00;1.80;;;;;;;14.56;100.00;99112.63;15300220;19;20019;-80
2022/10/12 11:46:23;;;;;;;3.88;1.60;;;;;;;14.72;100.00;99096.38;15300771;19;20017;-82
2022/10/12 11:51:51;;;;;;;3.75;1.40;;;;;;;14.82;100.00;99095.34;15299329;19;20364;-82
2022/10/12 11:57:22;;;;;;;5.28;1.58;;;;;;;14.97;100.00;99088.19;15300344;19;20021;-81
2022/10/12 12:02:51;;;;;;;5.60;1.50;;;;;;;15.07;100.00;99088.84;15303474;19;20027;-79
2022/10/12 12:08:28;;;;;;;9.88;1.60;;;;;;;15.14;100.00;99077.28;15304912;19;20019;-81
2022/10/12 12:14:31;;;;;;;4.20;1.60;;;;;;;15.47;100.00;99075.28;15350704;19;20002;-79
2022/10/12 12:19:57;;;;;;;4.38;1.58;;;;;;;15.64;100.00;99067.91;15291623;19;20042;-81
2022/10/12 12:25:32;;;;;;;12.07;1.70;;;;;;;15.81;100.00;99055.06;15296943;19;20034;-78
2022/10/12 12:31:08;;;;;;;4.15;1.50;;;;;;;15.93;100.00;99050.09;15294072;19;20010;-80
2022/10/12 12:36:35;;;;;;;4.78;1.80;;;;;;;15.93;100.00;99054.69;15289804;19;20020;-81
2022/10/12 12:42:12;;;;;;;4.72;1.50;;;;;;;16.02;100.00;99048.16;15293308;19;20022;-81
2022/10/12 12:47:42;;;;;;;5.70;1.85;;;;;;;16.21;100.00;99032.41;15298772;19;20414;-83
2022/10/12 12:53:13;;;;;;;5.28;1.73;;;;;;;16.32;100.00;99037.41;15296890;19;20050;-82
2022/10/12 12:58:57;;;;;;;5.70;2.00;;;;;;;16.41;100.00;99029.97;15295794;19;20712;-84
2022/10/12 13:04:42;;;;;;;4.40;1.60;;;;;;;16.41;100.00;99019.97;15295362;19;20300;-80
2022/10/12 13:10:23;;;;;;;5.72;1.80;;;;;;;16.60;100.00;99020.47;15288860;19;20015;-79
2022/10/12 13:16:02;;;;;;;5.35;1.92;;;;;;;16.70;100.00;99017.47;15291938;19;20010;-82
2022/10/12 13:21:40;;;;;;;3.22;1.60;;;;;;;16.91;100.00;99006.69;15292877;19;20007;-82
2022/10/12 13:27:13;;;;;;;4.53;1.50;;;;;;;17.19;100.00;99006.06;15295540;19;20011;-82
2022/10/12 13:32:47;;;;;;;3.95;1.50;;;;;;;17.20;100.00;99005.03;15290984;19;20014;-82
2022/10/12 13:38:28;;;;;;;4.70;1.70;;;;;;;17.75;100.00;98998.31;15289884;19;20015;-81
2022/10/12 13:44:02;;;;;;;3.85;1.30;;;;;;;17.72;100.00;98996.78;15286161;19;20018;-82
2022/10/12 13:49:28;;;;;;;3.97;1.60;;;;;;;18.00;100.00;98994.16;15299598;19;20070;-84
2022/10/12 13:54:57;;;;;;;3.30;1.40;;;;;;;18.51;100.00;98977.81;15299903;19;20018;-83
2022/10/12 14:00:27;;;;;;;3.35;1.40;;;;;;;18.97;100.00;98966.34;15300174;19;20442;-82
2022/10/12 14:05:56;;;;;;;3.78;1.50;;;;;;;19.32;100.00;98971.75;15296578;19;20014;-82
2022/10/12 14:11:25;;;;;;;3.97;1.40;;;;;;;19.75;100.00;98969.75;15283239;19;20046;-81
2022/10/12 14:16:49;;;;;;;3.67;1.50;;;;;;;19.82;100.00;98971.44;15300991;19;20101;-84
2022/10/12 14:22:21;;;;;;;4.65;1.70;;;;;;;20.03;100.00;98964.13;15306898;19;20024;-81
2022/10/12 14:27:49;;;;;;;4.18;1.50;;;;;;;20.18;100.00;98958.44;15288809;19;20018;-80
2022/10/12 14:33:22;;;;;;;4.88;1.38;;;;;;;20.22;91.89;98958.88;15304791;19;20408;-83
2022/10/12 14:38:50;;;;;;;2.83;1.33;;;;;;;20.26;100.00;98955.50;15304679;19;20018;-83
2022/10/12 14:44:31;;;;;;;96.20;5.25;;;;;;;20.44;98.28;98952.13;15296627;19;20403;-83
2022/10/12 14:49:58;;;;;;;6.00;1.63;;;;;;;20.57;95.26;98944.94;15302421;19;20007;-83
2022/10/12 14:55:28;;;;;;;4.55;1.50;;;;;;;20.72;96.85;98947.44;15307891;19;20022;-80
2022/10/12 15:00:58;;;;;;;2.72;1.30;;;;;;;20.65;87.42;98950.19;15298213;19;20022;-78
2022/10/12 15:06:24;;;;;;;4.68;1.40;;;;;;;20.58;98.69;98939.25;15311965;19;20484;-82
2022/10/12 15:11:48;;;;;;;3.63;1.50;;;;;;;20.44;94.06;98935.72;15304220;19;20039;-79
2022/10/12 15:17:20;;;;;;;3.95;1.50;;;;;;;20.41;94.60;98929.78;15301068;19;20018;-79
2022/10/12 15:22:47;;;;;;;4.40;1.50;;;;;;;20.35;100.00;98925.19;15349929;19;20007;-78
2022/10/12 15:28:14;;;;;;;4.88;1.27;;;;;;;20.11;100.00;98919.31;15316664;19;20086;-80
2022/10/12 15:33:43;;;;;;;3.58;1.48;;;;;;;19.87;100.00;98924.34;15306630;19;20110;-78
2022/10/12 15:39:08;;;;;;;5.82;1.30;;;;;;;19.55;100.00;98911.25;15302732;19;20006;-82
2022/10/12 15:44:36;;;;;;;4.07;1.40;;;;;;;19.13;100.00;98923.31;15319338;19;20047;-82
2022/10/12 15:50:06;;;;;;;3.33;1.30;;;;;;;18.59;100.00;98923.91;15309396;19;20015;-80
2022/10/12 15:55:32;;;;;;;4.97;1.70;;;;;;;17.91;100.00;98931.78;15305206;19;20102;-80
2022/10/12 16:00:59;;;;;;;4.28;1.60;;;;;;;17.30;100.00;98935.78;15306120;19;20021;-78
2022/10/12 16:06:27;;;;;;;6.03;1.50;;;;;;;16.75;100.00;98928.81;15313384;19;20025;-80
2022/10/12 16:11:53;;;;;;;3.40;1.40;;;;;;;16.40;100.00;98922.28;15297782;19;20479;-79
2022/10/12 16:17:19;;;;;;;4.20;1.60;;;;;;;15.93;100.00;98925.09;15321211;19;20013;-78
2022/10/12 16:22:47;;;;;;;4.10;1.63;;;;;;;15.53;100.00;98919.78;15341173;19;20102;-80
2022/10/12 16:28:12;;;;;;;6.07;1.95;;;;;;;15.23;100.00;98921.50;15288293;19;20007;-79
2022/10/12 16:33:38;;;;;;;4.55;1.80;;;;;;;14.91;100.00;98917.94;15297315;19;20018;-81
2022/10/12 16:39:06;;;;;;;6.35;1.98;;;;;;;14.64;100.00;98925.50;15299225;19;20514;-80
2022/10/12 16:44:31;;;;;;;4.22;1.83;;;;;;;14.35;100.00;98920.69;15305831;19;20336;-79
2022/10/12 16:49:56;;;;;;;4.60;1.65;;;;;;;14.08;100.00;98925.47;15297449;19;20496;-80
2022/10/12 16:55:26;;;;;;;6.90;1.80;;;;;;;13.87;100.00;98922.28;15297047;19;20102;-80
2022/10/12 17:00:51;;;;;;;4.63;1.70;;;;;;;13.67;100.00;98924.47;15295503;19;20014;-79
2022/10/12 17:06:20;;;;;;;7.28;1.90;;;;;;;13.37;100.00;98920.53;15314319;19;20035;-82
2022/10/12 17:11:48;;;;;;;4.57;1.90;;;;;;;13.24;100.00;98934.56;15294101;19;20477;-82
2022/10/12 17:17:14;;;;;;;8.88;1.92;;;;;;;13.09;100.00;98931.66;15298408;19;20047;-82
2022/10/12 17:22:39;;;;;;;5.50;1.95;;;;;;;12.97;100.00;98927.56;15300656;19;20431;-82
2022/10/12 17:28:07;;;;;;;4.72;1.95;;;;;;;12.80;100.00;98924.78;15294290;19;20014;-82
2022/10/12 17:33:31;;;;;;;5.50;1.98;;;;;;;12.68;100.00;98923.38;15301464;19;20027;-90
2022/10/12 17:39:05;;;;;;;6.47;2.20;;;;;;;12.55;100.00;98930.09;15301353;19;20534;-82
2022/10/12 17:44:40;;;;;;;3.88;1.83;;;;;;;12.46;100.00;98931.06;15295859;19;20031;-81
2022/10/12 17:50:06;;;;;;;4.57;2.15;;;;;;;12.39;100.00;98925.44;15292059;19;20014;-82
2022/10/12 17:55:32;;;;;;;6.28;2.50;;;;;;;12.30;100.00;98926.41;15290709;19;20398;-84
2022/10/12 18:01:18;;;;;;;7.10;2.28;;;;;;;12.21;100.00;98927.38;15285118;19;20359;-81
2022/10/12 18:06:44;;;;;;;5.88;2.40;;;;;;;12.10;100.00;98933.88;15288279;19;20034;-79
2022/10/12 18:12:10;;;;;;;6.63;2.28;;;;;;;12.02;100.00;98940.06;15296098;19;20018;-80
2022/10/12 18:17:38;;;;;;;5.57;2.30;;;;;;;11.93;100.00;98933.75;15296451;19;20014;-81
2022/10/12 18:23:03;;;;;;;7.82;2.15;;;;;;;11.86;100.00;98928.13;15299397;19;20018;-80
2022/10/12 18:28:27;;;;;;;6.88;2.38;;;;;;;11.75;100.00;98933.78;15298675;19;20038;-80
2022/10/12 18:33:55;;;;;;;6.80;1.90;;;;;;;11.63;100.00;98919.66;15297051;19;20043;-79
2022/10/12 18:39:22;;;;;;;5.57;2.28;;;;;;;11.50;100.00;98928.16;15293852;19;20368;-79
2022/10/12 18:44:46;;;;;;;4.35;1.95;;;;;;;11.49;100.00;98929.16;15295980;19;20054;-80
2022/10/12 18:50:15;;;;;;;7.15;2.42;;;;;;;11.47;100.00;98935.69;15298089;19;20034;-80
2022/10/12 18:55:40;;;;;;;6.05;2.22;;;;;;;11.41;100.00;98929.94;15297449;19;20018;-80
2022/10/12 19:01:07;;;;;;;6.63;2.30;;;;;;;11.36;100.00;98947.59;15310123;19;20473;-80
2022/10/12 19:06:38;;;;;;;6.97;2.15;;;;;;;11.30;100.00;98946.34;15307165;19;20498;-81
2022/10/12 19:12:02;;;;;;;6.45;2.03;;;;;;;11.23;100.00;98945.28;15303865;19;20035;-81
2022/10/12 19:17:27;;;;;;;5.93;2.25;;;;;;;11.13;100.00;98937.25;15302715;19;20011;-80
2022/10/12 19:22:54;;;;;;;6.97;2.47;;;;;;;11.06;100.00;98939.69;15305619;19;20409;-82
2022/10/12 19:28:19;;;;;;;4.57;2.10;;;;;;;11.02;100.00;98941.00;15308049;19;20416;-83
2022/10/12 19:33:45;;;;;;;5.80;2.22;;;;;;;10.94;100.00;98930.94;15308910;19;20014;-84
2022/10/12 19:39:17;;;;;;;7.35;2.55;;;;;;;10.91;100.00;98931.28;15306203;19;20077;-79
2022/10/12 19:44:41;;;;;;;8.98;2.47;;;;;;;10.88;100.00;98920.78;15305252;19;20010;-79
2022/10/12 19:50:07;;;;;;;6.25;2.47;;;;;;;10.86;100.00;98912.00;15317398;19;20018;-77
2022/10/12 19:55:37;;;;;;;5.88;2.30;;;;;;;10.74;100.00;98902.41;15353273;19;20010;-79
2022/10/12 20:01:03;;;;;;;4.47;2.53;;;;;;;10.63;100.00;98898.09;15292691;19;20010;-78
2022/10/12 20:06:30;;;;;;;6.63;2.85;;;;;;;10.51;100.00;98891.22;15320986;19;20043;-76
2022/10/12 20:11:57;;;;;;;5.97;2.55;;;;;;;10.37;100.00;98893.38;15316669;19;20815;-77
2022/10/12 20:17:22;;;;;;;6.22;2.70;;;;;;;10.33;100.00;98894.66;15294108;19;20064;-77
2022/10/12 20:22:47;;;;;;;7.65;3.25;;;;;;;10.37;100.00;98900.56;15288804;19;20419;-78
2022/10/12 20:28:14;;;;;;;10.15;3.22;;;;;;;10.35;100.00;98903.44;15297265;19;20051;-78
2022/10/12 20:33:41;;;;;;;5.90;2.92;;;;;;;10.35;100.00;98910.69;15300629;19;20358;-78
2022/10/12 20:39:05;;;;;;;7.50;3.40;;;;;;;10.31;100.00;98910.09;15290121;19;20488;-78
2022/10/12 20:44:39;;;;;;;7.68;2.50;;;;;;;10.26;100.00;98909.72;15286215;19;20021;-80
2022/10/12 20:50:03;;;;;;;9.50;3.20;;;;;;;10.16;100.00;98904.34;15289396;19;20021;-79
2022/10/12 20:55:28;;;;;;;7.50;3.25;;;;;;;10.11;100.00;98904.78;15290784;19;20039;-79
2022/10/12 21:01:03;;;;;;;9.80;3.35;;;;;;;10.03;100.00;98889.38;15284911;19;20006;-77
2022/10/12 21:06:28;;;;;;;7.32;3.08;;;;;;;9.95;100.00;98893.78;15290554;19;20013;-77
2022/10/12 21:11:53;;;;;;;6.47;2.92;;;;;;;9.83;100.00;98893.94;15287523;19;20039;-78
2022/10/12 21:17:21;;;;;;;8.25;3.47;;;;;;;9.71;100.00;98903.16;15283788;19;20015;-77
2022/10/12 21:22:47;;;;;;;8.90;3.00;;;;;;;9.63;100.00;98905.75;15286968;19;20031;-79
2022/10/12 21:28:11;;;;;;;8.30;3.38;;;;;;;9.53;100.00;98906.59;15289371;19;20113;-79
2022/10/12 21:33:39;;;;;;;6.20;3.05;;;;;;;9.45;100.00;98903.78;15289897;19;20085;-79
2022/10/12 21:39:05;;;;;;;8.95;3.10;;;;;;;9.35;100.00;98911.00;15287040;19;20018;-79
2022/10/12 21:44:36;;;;;;;6.47;3.13;;;;;;;9.24;100.00;98925.44;15280833;19;20017;-78
2022/10/12 21:50:06;;;;;;;8.07;3.17;;;;;;;9.10;100.00;98924.00;15282249;19;20028;-78
2022/10/12 21:55:31;;;;;;;8.80;3.30;;;;;;;9.03;100.00;98917.47;15285322;19;20073;-79
2022/10/12 22:01:04;;;;;;;7.18;3.25;;;;;;;8.96;100.00;98911.78;15283865;19;20018;-79
2022/10/12 22:06:34;;;;;;;8.52;3.40;;;;;;;8.88;100.00;98909.78;15289057;19;20031;-78
2022/10/12 22:11:59;;;;;;;6.80;3.55;;;;;;;8.88;100.00;98908.97;15282551;19;20010;-78
2022/10/12 22:17:23;;;;;;;6.65;3.42;;;;;;;8.86;100.00;98919.88;15281378;19;20009;-79
2022/10/12 22:22:57;;;;;;;8.65;4.10;;;;;;;8.89;100.00;98910.66;15281191;19;20011;-78
2022/10/12 22:28:23;;;;;;;10.05;3.90;;;;;;;8.91;100.00;98911.38;15284401;19;20011;-82
2022/10/12 22:33:48;;;;;;;9.00;4.13;;;;;;;8.91;100.00;98920.28;15289862;19;20025;-79
2022/10/12 22:39:19;;;;;;;9.80;4.13;;;;;;;8.96;100.00;98916.34;15296926;19;20022;-80
2022/10/12 22:44:51;;;;;;;8.65;3.70;;;;;;;8.99;100.00;98908.00;15300546;19;20014;-80
2022/10/12 22:50:17;;;;;;;9.38;3.83;;;;;;;9.00;100.00;98886.34;15293107;19;20022;-80
2022/10/12 22:55:44;;;;;;;7.85;3.50;;;;;;;9.03;100.00;98895.97;15297124;19;20033;-79
2022/10/12 23:01:11;;;;;;;9.90;3.65;;;;;;;9.06;100.00;98895.69;15298611;19;20042;-79
2022/10/12 23:06:35;;;;;;;7.60;3.80;;;;;;;9.06;100.00;98901.91;15305147;19;20053;-80
2022/10/12 23:12:02;;;;;;;6.15;3.60;;;;;;;9.06;100.00;98901.06;15298097;19;20509;-79
2022/10/12 23:17:28;;;;;;;8.88;3.75;;;;;;;9.02;100.00;98905.00;15305789;19;20014;-80
2022/10/12 23:22:53;;;;;;;8.25;4.10;;;;;;;8.98;100.00;98909.00;15332928;19;20010;-79
2022/10/12 23:28:20;;;;;;;7.15;3.95;;;;;;;8.92;100.00;98903.16;15320819;19;20010;-79
2022/10/12 23:33:45;;;;;;;7.97;3.78;;;;;;;8.90;100.00;98893.56;15296406;19;20016;-79
2022/10/12 23:39:13;;;;;;;7.10;3.58;;;;;;;8.88;100.00;98895.53;15293343;19;20025;-80
2022/10/12 23:44:48;;;;;;;8.10;4.63;;;;;;;8.91;100.00;98898.78;15292026;19;20070;-78
2022/10/12 23:50:13;;;;;;;6.82;3.90;;;;;;;8.92;100.00;98905.03;15294326;19;20484;-78
2022/10/12 23:55:38;;;;;;;9.52;3.90;;;;;;;8.90;100.00;98907.81;15293227;19;20016;-79
